CheckWX is a tool to help pilots better visualize weather data.  It is not intended as a substitute for an official pre-flight weather briefing.

15:13:13 UTC

KGPZ METAR
Grand Rapids / Itasca Co-Gordon Newstrom Field Airport
Grand Rapids, Minnesota, USA
Current

17 mins ago

KGPZ 261456Z AUTO 35005KT 10SM CLR 16/09 A3012 RMK AO2 SLP206 T01560089 50006
Observed
May-26 @ 14:56 UTC
Wind
  • 350° at 5 KTS
Visibility
10 SM
Flight Rules
VFR
Cloud Levels
  • Clear skies
Temperature
16°C / 61°F
Dewpoint
C / 48°F
Humidity
63%
Altimeter
30.12" Hg
Pressure
1020.02 hPa
Previous

1 hour ago

KGPZ 261356Z AUTO 33006KT 10SM CLR 14/09 A3012 RMK AO2 SLP205 T01390089
Observed
May-26 @ 13:56 UTC
Wind
  • 330° at 6 KTS
Visibility
10 SM
Flight Rules
VFR
Cloud Levels
  • Clear skies
Temperature
14°C / 57°F
Dewpoint
C / 48°F
Humidity
72%
Altimeter
30.12" Hg
Pressure
1020.02 hPa
Previous

2 hours ago

KGPZ 261256Z AUTO 30004KT 10SM CLR 12/08 A3012 RMK AO2 SLP203 T01170083
Observed
May-26 @ 12:56 UTC
Wind
  • 300° at 4 KTS
Visibility
10 SM
Flight Rules
VFR
Cloud Levels
  • Clear skies
Temperature
12°C / 54°F
Dewpoint
C / 46°F
Humidity
77%
Altimeter
30.12" Hg
Pressure
1020.02 hPa